VTSE/CJM METAR and TAF weather

Enter ICAO airport designator
Station Type Date Time Source
VTSE METAR 2022/01/29 01:00 UTC NOAA

VTSE 290100Z 00000KT 7000 FEW020 24/24 Q1011 NOSIG


Station Type Date Time Source
VTSE Decoded METAR 2022/01/29 01:00 UTC NOAA

Station name not available
Jan 28, 2022 - 08:00 PM EST / 2022.01.29 0100 UTC
Wind: Calm:0
Visibility: 4 mile(s):0
Sky conditions: mostly clear
Temperature: 75 F (24 C)
Dew Point: 75 F (24 C)
Relative Humidity: 100%
Pressure (altimeter): 29.85 in. Hg (1011 hPa)
ob: VTSE 290100Z 00000KT 7000 FEW020 24/24 Q1011 NOSIG
cycle: 1

Station Type Date Time Source
VTSE TAF 2022/01/28 18:00 UTC NOAA

TAF VTSE 281700Z 2818/2918 VRB02KT 8000 SCT020

Example: see airport list